Zou — TYAA4 — position and weather

sailwx.info

Track history (hours):
 
Tides and Currents Weather Stations Pressure Air Temp Water Temp Dewpoint Dewpoint Depression Visibility Wind Speed Wind Dir Waves Ship Positions

Zou

Last reported at 2015-Jan-17 05:03 UTC. Time now 2015-Jan-31 21:12 UTC.
Position N 06°21' E 002°26'.
Warning: this ship's position is 14 days out of date.

Length 30 m.

Type: Other ship. MMSI: 610000004.

Date/timePositionNaut miles runAvg speedWind from/ knotsBaromVisibWave heightAir tempDewpointWater temp
2015-Jan-17 05:03N 06°21' E 002°26'0 0.0
2015-Jan-17 04:33N 06°21' E 002°26'0 0.0
2015-Jan-17 03:33N 06°21' E 002°26'0 0.0
2015-Jan-17 01:33N 06°21' E 002°26'16 0.7
2015-Jan-16 04:17N 06°16' E 002°41'0 0.2
2015-Jan-16 03:08N 06°16' E 002°41'0 0.1
2015-Jan-16 02:30N 06°16' E 002°41'0 0.0
2015-Jan-16 01:32N 06°16' E 002°41'0 0.4
2015-Jan-16 00:31N 06°16' E 002°41'0 0.1
2015-Jan-15 23:33N 06°16' E 002°41'1 0.7
2015-Jan-15 22:32N 06°16' E 002°40'0 0.3
2015-Jan-15 21:31N 06°16' E 002°41'1 0.6
2015-Jan-15 20:25N 06°16' E 002°41'1 0.6
2015-Jan-15 19:32N 06°15' E 002°41'1 1.0
2015-Jan-15 18:28N 06°16' E 002°41'0 0.0
2015-Jan-15 17:22N 06°16' E 002°41'1 0.8
2015-Jan-15 16:26N 06°16' E 002°40'15 1.0
2015-Jan-15 01:14N 06°21' E 002°26'0 0.0
2015-Jan-15 00:32N 06°21' E 002°26'0 0.0
2015-Jan-14 23:32N 06°21' E 002°26'  
Track history (hours):
 
Tides and Currents Weather Stations Pressure Air Temp Water Temp Dewpoint Dewpoint Depression Visibility Wind Speed Wind Dir Waves Ship Positions

Zou

Last reported at 2015-Jan-17 05:03 UTC. Time now 2015-Jan-31 21:12 UTC.
Position N 06°21' E 002°26'.
Warning: this ship's position is 14 days out of date.

Length 30 m.

Type: Other ship. MMSI: 610000004.

Date/timePositionNaut miles runAvg speedWind from/ knotsBaromVisibWave heightAir tempDewpointWater temp
2015-Jan-17 05:03N 06°21' E 002°26'0 0.0
2015-Jan-17 04:33N 06°21' E 002°26'0 0.0
2015-Jan-17 03:33N 06°21' E 002°26'0 0.0
2015-Jan-17 01:33N 06°21' E 002°26'16 0.7
2015-Jan-16 04:17N 06°16' E 002°41'0 0.2
2015-Jan-16 03:08N 06°16' E 002°41'0 0.1
2015-Jan-16 02:30N 06°16' E 002°41'0 0.0
2015-Jan-16 01:32N 06°16' E 002°41'0 0.4
2015-Jan-16 00:31N 06°16' E 002°41'0 0.1
2015-Jan-15 23:33N 06°16' E 002°41'1 0.7
2015-Jan-15 22:32N 06°16' E 002°40'0 0.3
2015-Jan-15 21:31N 06°16' E 002°41'1 0.6
2015-Jan-15 20:25N 06°16' E 002°41'1 0.6
2015-Jan-15 19:32N 06°15' E 002°41'1 1.0
2015-Jan-15 18:28N 06°16' E 002°41'0 0.0
2015-Jan-15 17:22N 06°16' E 002°41'1 0.8
2015-Jan-15 16:26N 06°16' E 002°40'15 1.0
2015-Jan-15 01:14N 06°21' E 002°26'0 0.0
2015-Jan-15 00:32N 06°21' E 002°26'0 0.0
2015-Jan-14 23:32N 06°21' E 002°26'  

Dump ship's entire track history